createdAt,value
2023-07-04T00:01:25.360Z,14.69
2023-07-04T00:06:30.606Z,14.50
2023-07-04T00:11:34.592Z,14.45
2023-07-04T00:16:38.012Z,14.42
2023-07-04T00:21:42.623Z,14.26
2023-07-04T00:26:47.101Z,14.11
2023-07-04T00:31:49.950Z,14.06
2023-07-04T00:36:52.854Z,13.92
2023-07-04T00:41:55.877Z,13.83
2023-07-04T00:47:12.285Z,13.73
2023-07-04T00:52:27.480Z,13.66
2023-07-04T00:57:34.096Z,13.59
2023-07-04T01:02:39.023Z,13.45
2023-07-04T01:07:59.973Z,13.37
2023-07-04T01:13:03.187Z,13.40
2023-07-04T01:18:07.569Z,13.40
2023-07-04T01:23:34.948Z,13.34
2023-07-04T01:28:38.914Z,13.30
2023-07-04T01:33:41.861Z,13.27
2023-07-04T01:38:45.348Z,13.09
2023-07-04T01:43:59.710Z,12.97
2023-07-04T01:49:04.170Z,13.04
2023-07-04T01:54:09.615Z,13.00
2023-07-04T01:59:12.610Z,13.01
2023-07-04T02:04:15.679Z,13.05
2023-07-04T02:09:18.619Z,13.13
2023-07-04T02:14:21.639Z,13.13
2023-07-04T02:19:24.618Z,13.09
2023-07-04T02:24:27.592Z,13.04
2023-07-04T02:29:30.485Z,12.98
2023-07-04T02:34:33.492Z,12.95
2023-07-04T02:39:36.407Z,13.09
2023-07-04T02:44:39.309Z,13.37
2023-07-04T02:49:42.333Z,13.73
2023-07-04T02:54:45.398Z,14.12
2023-07-04T02:59:48.284Z,14.47
2023-07-04T03:04:53.224Z,14.91
2023-07-04T03:09:56.384Z,15.46
2023-07-04T03:14:59.276Z,16.04
2023-07-04T03:20:06.435Z,16.70
2023-07-04T03:25:11.120Z,17.27
2023-07-04T03:30:14.442Z,17.82
2023-07-04T03:35:17.560Z,18.23
2023-07-04T03:40:20.524Z,18.66
2023-07-04T03:45:23.391Z,19.13
2023-07-04T03:50:26.282Z,19.69
2023-07-04T03:55:29.158Z,19.89
2023-07-04T04:00:32.507Z,20.00
2023-07-04T04:05:35.368Z,20.38
2023-07-04T04:10:38.351Z,20.82
2023-07-04T04:15:41.268Z,21.25
2023-07-04T04:20:44.205Z,21.73
2023-07-04T04:25:47.186Z,22.05
2023-07-04T04:30:50.271Z,22.19
2023-07-04T04:35:53.471Z,22.41
2023-07-04T04:41:04.882Z,22.71
2023-07-04T04:46:07.889Z,22.86
2023-07-04T04:51:14.277Z,22.93
2023-07-04T04:56:17.398Z,23.02
2023-07-04T05:01:24.814Z,23.03
2023-07-04T05:06:28.250Z,23.24
2023-07-04T05:11:33.743Z,23.53
2023-07-04T05:16:36.935Z,23.88
2023-07-04T05:21:39.936Z,24.28
2023-07-04T05:26:42.861Z,24.34
2023-07-04T05:31:45.991Z,24.22
2023-07-04T05:36:48.937Z,24.22
2023-07-04T05:41:51.898Z,24.05
2023-07-04T05:46:55.990Z,23.77
2023-07-04T05:51:58.892Z,23.71
2023-07-04T05:57:01.800Z,23.88
2023-07-04T06:02:05.203Z,24.10
2023-07-04T06:07:08.181Z,24.33
2023-07-04T06:12:11.108Z,24.28
2023-07-04T06:17:14.209Z,23.97
2023-07-04T06:22:17.194Z,23.45
2023-07-04T06:27:20.199Z,23.11
2023-07-04T06:32:24.027Z,22.91
2023-07-04T06:37:26.984Z,22.67
2023-07-04T06:42:31.801Z,22.35
2023-07-04T06:47:34.790Z,22.22
2023-07-04T06:52:37.829Z,22.12
2023-07-04T06:57:40.844Z,21.96
2023-07-04T07:02:43.879Z,21.81
2023-07-04T07:07:47.768Z,21.75
2023-07-04T07:12:50.643Z,21.79
2023-07-04T07:17:53.556Z,21.95
2023-07-04T07:22:56.528Z,22.13
2023-07-04T07:27:59.407Z,22.41
2023-07-04T07:33:02.535Z,22.67
2023-07-04T07:38:05.849Z,23.01
2023-07-04T07:43:08.761Z,23.45
2023-07-04T07:48:14.336Z,23.91
2023-07-04T07:53:17.273Z,24.42
2023-07-04T07:58:20.241Z,24.83
2023-07-04T08:03:23.885Z,25.05
2023-07-04T08:08:27.098Z,25.31
2023-07-04T08:13:30.115Z,25.75
2023-07-04T08:18:37.784Z,26.43
2023-07-04T08:23:43.870Z,26.36
2023-07-04T08:28:57.936Z,25.95
2023-07-04T08:34:10.524Z,25.94
2023-07-04T08:39:15.178Z,25.84
2023-07-04T08:44:23.508Z,26.21
2023-07-04T08:49:51.351Z,26.27
2023-07-04T08:54:56.282Z,26.10
2023-07-04T09:00:26.477Z,26.10
2023-07-04T09:05:36.536Z,26.10
2023-07-04T09:10:52.670Z,26.15
2023-07-04T09:15:59.769Z,26.59
2023-07-04T09:21:20.287Z,26.39
2023-07-04T09:26:29.246Z,26.19
2023-07-04T09:31:37.802Z,26.35
2023-07-04T09:36:41.093Z,26.43
2023-07-04T09:47:14.281Z,26.42
2023-07-04T09:52:23.286Z,26.82
2023-07-04T09:57:31.414Z,27.34
2023-07-04T10:02:36.391Z,27.50
2023-07-04T10:07:39.495Z,27.58
2023-07-04T10:12:46.343Z,27.91
2023-07-04T10:17:49.368Z,28.25
2023-07-04T10:22:54.212Z,28.32
2023-07-04T10:28:28.384Z,27.98
2023-07-04T10:33:46.969Z,27.55
2023-07-04T10:38:52.343Z,27.79
2023-07-04T10:44:04.673Z,27.76
2023-07-04T10:49:16.527Z,27.81
2023-07-04T10:54:20.479Z,27.63
2023-07-04T10:59:30.965Z,27.57
2023-07-04T11:04:38.440Z,27.24
2023-07-04T11:09:43.259Z,27.48
2023-07-04T11:14:48.993Z,27.29
2023-07-04T11:20:18.344Z,27.19
2023-07-04T11:25:43.067Z,27.00
2023-07-04T11:30:50.820Z,27.28
2023-07-04T11:35:55.205Z,27.15
2023-07-04T11:40:58.846Z,26.91
2023-07-04T11:46:04.127Z,26.92
2023-07-04T11:51:13.059Z,27.71
2023-07-04T11:56:24.594Z,28.20
2023-07-04T12:01:58.621Z,28.24
2023-07-04T12:07:49.553Z,28.39
2023-07-04T12:13:03.868Z,28.06
2023-07-04T12:18:22.838Z,27.73
2023-07-04T12:23:26.442Z,27.78
2023-07-04T12:28:32.182Z,28.28
2023-07-04T12:33:45.639Z,28.50
2023-07-04T12:38:51.878Z,28.20
2023-07-04T12:54:18.556Z,27.22
2023-07-04T12:59:37.555Z,27.78
2023-07-04T13:04:41.165Z,27.52
2023-07-04T13:09:45.100Z,26.81
2023-07-04T13:14:48.178Z,26.93
2023-07-04T13:19:51.574Z,27.63
2023-07-04T13:35:42.840Z,28.13
2023-07-04T13:40:45.843Z,28.07
2023-07-04T13:45:49.801Z,27.96
2023-07-04T13:50:56.799Z,28.31
2023-07-04T13:56:00.055Z,28.13
2023-07-04T14:06:10.337Z,27.64
2023-07-04T14:11:20.189Z,27.86
2023-07-04T14:21:30.781Z,26.74
2023-07-04T14:26:33.882Z,26.80
2023-07-04T14:31:37.193Z,27.08
2023-07-04T14:36:40.247Z,27.08
2023-07-04T14:46:49.238Z,27.23
2023-07-04T14:51:52.284Z,26.74
2023-07-04T14:56:56.772Z,26.51
2023-07-04T15:02:01.277Z,26.42
2023-07-04T15:07:04.621Z,26.15
2023-07-04T15:12:07.931Z,25.89
2023-07-04T15:17:11.149Z,26.05
2023-07-04T15:22:14.336Z,25.89
2023-07-04T15:27:17.668Z,25.52
2023-07-04T15:32:20.605Z,25.39
2023-07-04T15:37:25.915Z,25.37
2023-07-04T15:42:29.336Z,24.83
2023-07-04T15:47:32.299Z,24.45
2023-07-04T15:52:35.463Z,23.88
2023-07-04T15:57:40.324Z,24.11
2023-07-04T16:02:43.644Z,23.75
2023-07-04T16:07:47.538Z,23.35
2023-07-04T16:12:50.699Z,23.44
2023-07-04T16:17:53.848Z,23.36
2023-07-04T16:22:57.033Z,23.52
2023-07-04T16:28:00.454Z,23.44
2023-07-04T16:33:03.955Z,23.47
2023-07-04T16:38:07.018Z,23.49
2023-07-04T16:43:10.244Z,23.29
2023-07-04T16:48:13.682Z,23.14
2023-07-04T16:53:17.028Z,23.21
2023-07-04T16:58:20.055Z,22.96
2023-07-04T17:03:23.636Z,22.64
2023-07-04T17:08:29.206Z,22.23
2023-07-04T17:13:38.707Z,22.05
2023-07-04T17:18:43.557Z,21.87
2023-07-04T17:23:46.669Z,21.77
2023-07-04T17:28:49.669Z,21.76
2023-07-04T17:33:52.623Z,21.81
2023-07-04T17:38:55.840Z,21.83
2023-07-04T17:43:59.985Z,21.81
2023-07-04T17:49:03.563Z,21.76
2023-07-04T17:54:06.484Z,21.68
2023-07-04T17:59:11.525Z,21.61
2023-07-04T18:04:14.483Z,21.53
2023-07-04T18:09:19.905Z,21.46
2023-07-04T18:14:23.955Z,21.43
2023-07-04T18:19:27.017Z,21.41
2023-07-04T18:24:30.161Z,21.45
2023-07-04T18:29:36.291Z,21.57
2023-07-04T18:34:39.685Z,21.69
2023-07-04T18:39:43.363Z,21.62
2023-07-04T18:44:46.455Z,21.49
2023-07-04T18:49:51.668Z,21.47
2023-07-04T18:54:56.226Z,21.51
2023-07-04T18:59:59.403Z,21.39
2023-07-04T19:05:04.327Z,21.19
2023-07-04T19:10:12.900Z,21.00
2023-07-04T19:15:18.361Z,20.85
2023-07-04T19:20:24.051Z,20.70
2023-07-04T19:25:27.289Z,20.56
2023-07-04T19:30:31.719Z,20.39
2023-07-04T19:35:43.784Z,20.19
2023-07-04T19:41:03.298Z,19.93
2023-07-04T19:46:09.541Z,19.65
2023-07-04T19:51:21.841Z,19.43
2023-07-04T19:56:31.816Z,19.28
2023-07-04T20:01:37.553Z,19.11
2023-07-04T20:06:41.686Z,18.95
2023-07-04T20:11:44.778Z,18.78
2023-07-04T20:16:47.765Z,18.57
2023-07-04T20:21:51.223Z,18.34
2023-07-04T20:26:54.257Z,18.18
2023-07-04T20:31:58.324Z,18.00
2023-07-04T20:37:01.785Z,17.84
2023-07-04T20:42:08.177Z,17.63
2023-07-04T20:47:11.769Z,17.42
2023-07-04T20:52:28.553Z,17.23
2023-07-04T20:57:32.272Z,17.09
2023-07-04T21:02:35.890Z,17.06
2023-07-04T21:07:42.160Z,16.75
2023-07-04T21:12:48.669Z,16.47
2023-07-04T21:17:52.008Z,16.58
2023-07-04T21:22:57.574Z,16.68
2023-07-04T21:28:00.833Z,16.69
2023-07-04T21:33:04.008Z,16.74
2023-07-04T21:38:11.995Z,16.71
2023-07-04T21:43:14.972Z,16.66
2023-07-04T21:48:18.053Z,16.58
2023-07-04T21:53:21.935Z,16.49
2023-07-04T21:58:25.580Z,16.32
2023-07-04T22:03:29.964Z,16.14
2023-07-04T22:08:36.238Z,16.01
2023-07-04T22:13:44.654Z,15.93
2023-07-04T22:18:48.321Z,15.86
2023-07-04T22:23:51.724Z,15.83
2023-07-04T22:28:54.702Z,15.70
2023-07-04T22:34:05.936Z,15.66
2023-07-04T22:39:09.999Z,15.64
2023-07-04T22:44:13.789Z,15.54
2023-07-04T22:49:16.811Z,15.49
2023-07-04T22:54:19.837Z,15.45
2023-07-04T22:59:22.830Z,15.35
2023-07-04T23:04:26.379Z,15.24
2023-07-04T23:09:29.683Z,15.14
2023-07-04T23:14:33.511Z,14.89
2023-07-04T23:19:36.422Z,14.74
2023-07-04T23:24:39.784Z,14.36
2023-07-04T23:29:42.684Z,14.13
2023-07-04T23:34:46.047Z,13.97
2023-07-04T23:39:49.137Z,13.97
2023-07-04T23:44:52.268Z,14.14
2023-07-04T23:49:55.378Z,14.06
2023-07-04T23:54:58.336Z,14.09
